sensor_id;sensor_type;location;lat;lon;timestamp;P1;durP1;ratioP1;P2;durP2;ratioP2
6505;SDS011;3286;49.858;8.768;2024-03-02T00:01:35;9.47;;;5.83;;
6505;SDS011;3286;49.858;8.768;2024-03-02T00:04:02;9.17;;;5.63;;
6505;SDS011;3286;49.858;8.768;2024-03-02T00:06:31;9.97;;;5.57;;
6505;SDS011;3286;49.858;8.768;2024-03-02T00:08:59;8.20;;;5.80;;
6505;SDS011;3286;49.858;8.768;2024-03-02T00:11:26;12.90;;;5.67;;
6505;SDS011;3286;49.858;8.768;2024-03-02T00:13:53;7.77;;;5.20;;
6505;SDS011;3286;49.858;8.768;2024-03-02T00:16:20;9.70;;;5.50;;
6505;SDS011;3286;49.858;8.768;2024-03-02T00:18:47;8.43;;;5.47;;
6505;SDS011;3286;49.858;8.768;2024-03-02T00:21:14;10.13;;;6.57;;
6505;SDS011;3286;49.858;8.768;2024-03-02T00:23:43;11.37;;;6.80;;
6505;SDS011;3286;49.858;8.768;2024-03-02T00:26:12;11.03;;;6.47;;
6505;SDS011;3286;49.858;8.768;2024-03-02T00:28:39;11.43;;;5.67;;
6505;SDS011;3286;49.858;8.768;2024-03-02T00:31:07;9.17;;;5.93;;
6505;SDS011;3286;49.858;8.768;2024-03-02T00:33:39;9.53;;;6.00;;
6505;SDS011;3286;49.858;8.768;2024-03-02T00:36:08;8.90;;;5.80;;
6505;SDS011;3286;49.858;8.768;2024-03-02T00:38:40;8.23;;;5.60;;
6505;SDS011;3286;49.858;8.768;2024-03-02T00:41:15;9.27;;;5.83;;
6505;SDS011;3286;49.858;8.768;2024-03-02T00:43:43;8.37;;;5.83;;
6505;SDS011;3286;49.858;8.768;2024-03-02T00:46:15;12.63;;;5.77;;
6505;SDS011;3286;49.858;8.768;2024-03-02T00:48:47;11.13;;;5.80;;
6505;SDS011;3286;49.858;8.768;2024-03-02T00:51:17;9.33;;;5.47;;
6505;SDS011;3286;49.858;8.768;2024-03-02T00:53:44;13.00;;;6.17;;
6505;SDS011;3286;49.858;8.768;2024-03-02T00:56:10;11.37;;;6.37;;
6505;SDS011;3286;49.858;8.768;2024-03-02T00:58:39;7.70;;;5.50;;
6505;SDS011;3286;49.858;8.768;2024-03-02T01:01:06;9.30;;;6.20;;
6505;SDS011;3286;49.858;8.768;2024-03-02T01:03:33;9.77;;;5.83;;
6505;SDS011;3286;49.858;8.768;2024-03-02T01:06:00;11.87;;;5.97;;
6505;SDS011;3286;49.858;8.768;2024-03-02T01:08:28;9.47;;;6.30;;
6505;SDS011;3286;49.858;8.768;2024-03-02T01:10:55;9.00;;;6.20;;
6505;SDS011;3286;49.858;8.768;2024-03-02T01:13:21;8.80;;;5.60;;
6505;SDS011;3286;49.858;8.768;2024-03-02T01:15:49;9.43;;;5.50;;
6505;SDS011;3286;49.858;8.768;2024-03-02T01:18:16;10.07;;;6.27;;
6505;SDS011;3286;49.858;8.768;2024-03-02T01:20:43;11.00;;;6.27;;
6505;SDS011;3286;49.858;8.768;2024-03-02T01:23:10;9.47;;;6.00;;
6505;SDS011;3286;49.858;8.768;2024-03-02T01:25:36;10.73;;;6.07;;
6505;SDS011;3286;49.858;8.768;2024-03-02T01:28:03;11.20;;;6.40;;
6505;SDS011;3286;49.858;8.768;2024-03-02T01:30:30;11.83;;;6.83;;
6505;SDS011;3286;49.858;8.768;2024-03-02T01:32:58;13.07;;;6.90;;
6505;SDS011;3286;49.858;8.768;2024-03-02T01:35:25;9.47;;;5.50;;
6505;SDS011;3286;49.858;8.768;2024-03-02T01:37:52;12.83;;;5.77;;
6505;SDS011;3286;49.858;8.768;2024-03-02T01:40:19;11.20;;;6.13;;
6505;SDS011;3286;49.858;8.768;2024-03-02T01:42:46;10.90;;;6.00;;
6505;SDS011;3286;49.858;8.768;2024-03-02T01:45:12;11.20;;;6.67;;
6505;SDS011;3286;49.858;8.768;2024-03-02T01:47:39;12.53;;;6.80;;
6505;SDS011;3286;49.858;8.768;2024-03-02T01:50:07;10.53;;;6.17;;
6505;SDS011;3286;49.858;8.768;2024-03-02T01:52:36;9.37;;;6.03;;
6505;SDS011;3286;49.858;8.768;2024-03-02T01:55:03;9.13;;;6.00;;
6505;SDS011;3286;49.858;8.768;2024-03-02T01:57:31;8.97;;;6.50;;
6505;SDS011;3286;49.858;8.768;2024-03-02T01:59:57;9.77;;;5.80;;
6505;SDS011;3286;49.858;8.768;2024-03-02T02:02:24;8.60;;;6.00;;
6505;SDS011;3286;49.858;8.768;2024-03-02T02:04:51;9.30;;;5.87;;
6505;SDS011;3286;49.858;8.768;2024-03-02T02:07:19;10.30;;;5.87;;
6505;SDS011;3286;49.858;8.768;2024-03-02T02:09:46;9.70;;;6.10;;
6505;SDS011;3286;49.858;8.768;2024-03-02T02:12:12;10.37;;;6.17;;
6505;SDS011;3286;49.858;8.768;2024-03-02T02:14:40;12.70;;;5.70;;
6505;SDS011;3286;49.858;8.768;2024-03-02T02:17:13;7.90;;;5.80;;
6505;SDS011;3286;49.858;8.768;2024-03-02T02:19:40;9.00;;;6.37;;
6505;SDS011;3286;49.858;8.768;2024-03-02T02:22:08;10.67;;;5.87;;
6505;SDS011;3286;49.858;8.768;2024-03-02T02:24:34;10.57;;;6.37;;
6505;SDS011;3286;49.858;8.768;2024-03-02T02:27:04;10.77;;;6.23;;
6505;SDS011;3286;49.858;8.768;2024-03-02T02:29:33;11.23;;;6.93;;
6505;SDS011;3286;49.858;8.768;2024-03-02T02:32:00;9.83;;;5.97;;
6505;SDS011;3286;49.858;8.768;2024-03-02T02:34:26;11.47;;;6.57;;
6505;SDS011;3286;49.858;8.768;2024-03-02T02:36:53;12.47;;;6.23;;
6505;SDS011;3286;49.858;8.768;2024-03-02T02:39:22;9.50;;;5.77;;
6505;SDS011;3286;49.858;8.768;2024-03-02T02:41:49;11.80;;;6.20;;
6505;SDS011;3286;49.858;8.768;2024-03-02T02:44:15;8.27;;;5.43;;
6505;SDS011;3286;49.858;8.768;2024-03-02T02:46:42;8.17;;;5.57;;
6505;SDS011;3286;49.858;8.768;2024-03-02T02:49:09;9.07;;;5.83;;
6505;SDS011;3286;49.858;8.768;2024-03-02T02:51:35;12.93;;;6.77;;
6505;SDS011;3286;49.858;8.768;2024-03-02T02:54:02;11.17;;;6.27;;
6505;SDS011;3286;49.858;8.768;2024-03-02T02:56:30;9.53;;;5.90;;
6505;SDS011;3286;49.858;8.768;2024-03-02T02:58:56;11.73;;;6.70;;
6505;SDS011;3286;49.858;8.768;2024-03-02T03:01:23;8.30;;;6.13;;
6505;SDS011;3286;49.858;8.768;2024-03-02T03:03:50;10.63;;;6.80;;
6505;SDS011;3286;49.858;8.768;2024-03-02T03:06:17;12.67;;;6.47;;
6505;SDS011;3286;49.858;8.768;2024-03-02T03:08:43;9.23;;;5.80;;
6505;SDS011;3286;49.858;8.768;2024-03-02T03:11:10;10.47;;;6.20;;
6505;SDS011;3286;49.858;8.768;2024-03-02T03:13:38;13.73;;;6.90;;
6505;SDS011;3286;49.858;8.768;2024-03-02T03:16:05;11.80;;;6.50;;
6505;SDS011;3286;49.858;8.768;2024-03-02T03:18:32;9.93;;;5.70;;
6505;SDS011;3286;49.858;8.768;2024-03-02T03:20:58;9.20;;;5.73;;
6505;SDS011;3286;49.858;8.768;2024-03-02T03:23:25;10.47;;;6.30;;
6505;SDS011;3286;49.858;8.768;2024-03-02T03:25:51;13.13;;;7.07;;
6505;SDS011;3286;49.858;8.768;2024-03-02T03:28:18;12.03;;;6.97;;
6505;SDS011;3286;49.858;8.768;2024-03-02T03:30:46;11.47;;;6.43;;
6505;SDS011;3286;49.858;8.768;2024-03-02T03:33:13;12.57;;;6.77;;
6505;SDS011;3286;49.858;8.768;2024-03-02T03:35:39;10.70;;;6.03;;
6505;SDS011;3286;49.858;8.768;2024-03-02T03:38:06;11.70;;;5.97;;
6505;SDS011;3286;49.858;8.768;2024-03-02T03:40:33;10.27;;;6.10;;
6505;SDS011;3286;49.858;8.768;2024-03-02T03:42:59;9.93;;;6.10;;
6505;SDS011;3286;49.858;8.768;2024-03-02T03:45:26;13.30;;;6.63;;
6505;SDS011;3286;49.858;8.768;2024-03-02T03:47:54;12.40;;;6.53;;
6505;SDS011;3286;49.858;8.768;2024-03-02T03:50:21;10.90;;;6.83;;
6505;SDS011;3286;49.858;8.768;2024-03-02T03:52:47;8.57;;;6.37;;
6505;SDS011;3286;49.858;8.768;2024-03-02T03:55:14;14.67;;;6.47;;
6505;SDS011;3286;49.858;8.768;2024-03-02T03:57:41;11.40;;;6.87;;
6505;SDS011;3286;49.858;8.768;2024-03-02T04:00:07;10.60;;;6.87;;
6505;SDS011;3286;49.858;8.768;2024-03-02T04:02:36;8.50;;;5.33;;
6505;SDS011;3286;49.858;8.768;2024-03-02T04:05:03;8.87;;;5.47;;
6505;SDS011;3286;49.858;8.768;2024-03-02T04:07:34;6.50;;;4.60;;
6505;SDS011;3286;49.858;8.768;2024-03-02T04:10:05;9.10;;;5.30;;
6505;SDS011;3286;49.858;8.768;2024-03-02T04:12:34;6.23;;;4.57;;
6505;SDS011;3286;49.858;8.768;2024-03-02T04:15:00;9.27;;;4.97;;
6505;SDS011;3286;49.858;8.768;2024-03-02T04:17:29;7.20;;;4.17;;
6505;SDS011;3286;49.858;8.768;2024-03-02T04:19:57;5.93;;;4.00;;
6505;SDS011;3286;49.858;8.768;2024-03-02T04:22:25;6.93;;;4.10;;
6505;SDS011;3286;49.858;8.768;2024-03-02T04:24:52;4.17;;;3.07;;
6505;SDS011;3286;49.858;8.768;2024-03-02T04:27:18;7.10;;;4.43;;
6505;SDS011;3286;49.858;8.768;2024-03-02T04:29:45;5.33;;;3.97;;
6505;SDS011;3286;49.858;8.768;2024-03-02T04:32:11;7.27;;;4.23;;
6505;SDS011;3286;49.858;8.768;2024-03-02T04:34:38;5.73;;;3.80;;
6505;SDS011;3286;49.858;8.768;2024-03-02T04:37:05;8.33;;;3.40;;
6505;SDS011;3286;49.858;8.768;2024-03-02T04:39:33;5.57;;;3.63;;
6505;SDS011;3286;49.858;8.768;2024-03-02T04:42:00;4.43;;;3.30;;
6505;SDS011;3286;49.858;8.768;2024-03-02T04:44:27;5.53;;;3.70;;
6505;SDS011;3286;49.858;8.768;2024-03-02T04:46:54;6.63;;;3.67;;
6505;SDS011;3286;49.858;8.768;2024-03-02T04:49:21;6.40;;;3.80;;
6505;SDS011;3286;49.858;8.768;2024-03-02T04:51:47;5.93;;;4.13;;
6505;SDS011;3286;49.858;8.768;2024-03-02T04:54:14;6.20;;;3.90;;
6505;SDS011;3286;49.858;8.768;2024-03-02T04:56:42;6.87;;;3.77;;
6505;SDS011;3286;49.858;8.768;2024-03-02T04:59:14;4.63;;;3.00;;
6505;SDS011;3286;49.858;8.768;2024-03-02T05:01:41;6.37;;;3.40;;
6505;SDS011;3286;49.858;8.768;2024-03-02T05:04:08;7.53;;;4.17;;
6505;SDS011;3286;49.858;8.768;2024-03-02T05:06:36;7.43;;;4.37;;
6505;SDS011;3286;49.858;8.768;2024-03-02T05:09:03;4.20;;;3.03;;
6505;SDS011;3286;49.858;8.768;2024-03-02T05:11:30;8.13;;;3.63;;
6505;SDS011;3286;49.858;8.768;2024-03-02T05:14:12;9.73;;;3.50;;
6505;SDS011;3286;49.858;8.768;2024-03-02T05:16:38;5.77;;;3.40;;
6505;SDS011;3286;49.858;8.768;2024-03-02T05:19:05;8.03;;;4.80;;
6505;SDS011;3286;49.858;8.768;2024-03-02T05:21:32;9.07;;;5.83;;
6505;SDS011;3286;49.858;8.768;2024-03-02T05:23:59;12.10;;;7.27;;
6505;SDS011;3286;49.858;8.768;2024-03-02T05:26:26;10.43;;;6.27;;
6505;SDS011;3286;49.858;8.768;2024-03-02T05:28:53;8.80;;;5.07;;
6505;SDS011;3286;49.858;8.768;2024-03-02T05:31:21;8.67;;;5.17;;
6505;SDS011;3286;49.858;8.768;2024-03-02T05:33:47;8.20;;;5.73;;
6505;SDS011;3286;49.858;8.768;2024-03-02T05:36:14;8.60;;;4.60;;
6505;SDS011;3286;49.858;8.768;2024-03-02T05:38:41;6.77;;;4.13;;
6505;SDS011;3286;49.858;8.768;2024-03-02T05:41:08;6.10;;;4.00;;
6505;SDS011;3286;49.858;8.768;2024-03-02T05:43:35;10.47;;;6.10;;
6505;SDS011;3286;49.858;8.768;2024-03-02T05:46:02;11.03;;;5.13;;
6505;SDS011;3286;49.858;8.768;2024-03-02T05:48:30;21.43;;;6.93;;
6505;SDS011;3286;49.858;8.768;2024-03-02T05:50:57;10.33;;;5.97;;
6505;SDS011;3286;49.858;8.768;2024-03-02T05:53:25;9.27;;;6.07;;
6505;SDS011;3286;49.858;8.768;2024-03-02T05:55:51;10.23;;;6.20;;
6505;SDS011;3286;49.858;8.768;2024-03-02T05:58:20;12.87;;;5.53;;
6505;SDS011;3286;49.858;8.768;2024-03-02T06:01:02;7.67;;;5.27;;
6505;SDS011;3286;49.858;8.768;2024-03-02T06:03:31;8.47;;;4.50;;
6505;SDS011;3286;49.858;8.768;2024-03-02T06:05:57;7.83;;;4.47;;
6505;SDS011;3286;49.858;8.768;2024-03-02T06:08:24;8.77;;;5.50;;
6505;SDS011;3286;49.858;8.768;2024-03-02T06:10:51;10.53;;;5.10;;
6505;SDS011;3286;49.858;8.768;2024-03-02T06:13:17;9.20;;;6.20;;
6505;SDS011;3286;49.858;8.768;2024-03-02T06:15:44;10.70;;;6.03;;
6505;SDS011;3286;49.858;8.768;2024-03-02T06:18:11;8.90;;;5.57;;
6505;SDS011;3286;49.858;8.768;2024-03-02T06:20:39;8.33;;;5.23;;
6505;SDS011;3286;49.858;8.768;2024-03-02T06:23:05;9.57;;;6.17;;
6505;SDS011;3286;49.858;8.768;2024-03-02T06:25:32;13.07;;;6.10;;
6505;SDS011;3286;49.858;8.768;2024-03-02T06:27:58;11.13;;;5.60;;
6505;SDS011;3286;49.858;8.768;2024-03-02T06:30:25;7.53;;;5.20;;
6505;SDS011;3286;49.858;8.768;2024-03-02T06:32:52;7.83;;;5.00;;
6505;SDS011;3286;49.858;8.768;2024-03-02T06:35:18;8.33;;;5.83;;
6505;SDS011;3286;49.858;8.768;2024-03-02T06:37:46;10.57;;;5.63;;
6505;SDS011;3286;49.858;8.768;2024-03-02T06:40:13;8.30;;;5.40;;
6505;SDS011;3286;49.858;8.768;2024-03-02T06:42:40;9.67;;;5.57;;
6505;SDS011;3286;49.858;8.768;2024-03-02T06:45:06;9.47;;;5.27;;
6505;SDS011;3286;49.858;8.768;2024-03-02T06:47:33;10.10;;;5.80;;
6505;SDS011;3286;49.858;8.768;2024-03-02T06:50:00;10.13;;;5.60;;
6505;SDS011;3286;49.858;8.768;2024-03-02T06:52:26;10.03;;;5.47;;
6505;SDS011;3286;49.858;8.768;2024-03-02T06:54:54;10.70;;;5.80;;
6505;SDS011;3286;49.858;8.768;2024-03-02T06:57:21;8.60;;;5.33;;
6505;SDS011;3286;49.858;8.768;2024-03-02T06:59:49;7.20;;;5.17;;
6505;SDS011;3286;49.858;8.768;2024-03-02T07:02:19;10.00;;;5.30;;
6505;SDS011;3286;49.858;8.768;2024-03-02T07:04:45;9.30;;;5.17;;
6505;SDS011;3286;49.858;8.768;2024-03-02T07:07:12;9.30;;;5.53;;
6505;SDS011;3286;49.858;8.768;2024-03-02T07:09:39;10.10;;;5.77;;
6505;SDS011;3286;49.858;8.768;2024-03-02T07:12:07;9.93;;;5.77;;
6505;SDS011;3286;49.858;8.768;2024-03-02T07:14:34;7.23;;;5.20;;
6505;SDS011;3286;49.858;8.768;2024-03-02T07:17:19;7.97;;;5.07;;
6505;SDS011;3286;49.858;8.768;2024-03-02T07:19:45;21.23;;;6.77;;
6505;SDS011;3286;49.858;8.768;2024-03-02T07:22:12;11.13;;;6.70;;
6505;SDS011;3286;49.858;8.768;2024-03-02T07:24:39;11.50;;;7.00;;
6505;SDS011;3286;49.858;8.768;2024-03-02T07:27:08;10.97;;;6.90;;
6505;SDS011;3286;49.858;8.768;2024-03-02T07:29:35;11.83;;;6.50;;
6505;SDS011;3286;49.858;8.768;2024-03-02T07:32:02;10.13;;;6.27;;
6505;SDS011;3286;49.858;8.768;2024-03-02T07:34:28;13.47;;;6.47;;
6505;SDS011;3286;49.858;8.768;2024-03-02T07:36:55;11.30;;;5.63;;
6505;SDS011;3286;49.858;8.768;2024-03-02T07:39:22;6.37;;;4.67;;
6505;SDS011;3286;49.858;8.768;2024-03-02T07:41:49;8.37;;;5.37;;
6505;SDS011;3286;49.858;8.768;2024-03-02T07:44:17;8.53;;;4.77;;
6505;SDS011;3286;49.858;8.768;2024-03-02T07:46:44;7.97;;;5.10;;
6505;SDS011;3286;49.858;8.768;2024-03-02T07:49:12;8.23;;;4.97;;
6505;SDS011;3286;49.858;8.768;2024-03-02T07:51:39;8.97;;;4.83;;
6505;SDS011;3286;49.858;8.768;2024-03-02T07:54:06;7.50;;;5.10;;
6505;SDS011;3286;49.858;8.768;2024-03-02T07:56:32;8.37;;;5.23;;
6505;SDS011;3286;49.858;8.768;2024-03-02T07:58:59;6.53;;;4.83;;
6505;SDS011;3286;49.858;8.768;2024-03-02T08:01:28;8.93;;;5.57;;
6505;SDS011;3286;49.858;8.768;2024-03-02T08:03:55;9.97;;;5.90;;
6505;SDS011;3286;49.858;8.768;2024-03-02T08:06:23;9.23;;;6.37;;
6505;SDS011;3286;49.858;8.768;2024-03-02T08:08:52;9.77;;;5.70;;
6505;SDS011;3286;49.858;8.768;2024-03-02T08:11:19;12.23;;;6.37;;
6505;SDS011;3286;49.858;8.768;2024-03-02T08:13:46;9.67;;;6.60;;
6505;SDS011;3286;49.858;8.768;2024-03-02T08:16:13;10.23;;;6.63;;
6505;SDS011;3286;49.858;8.768;2024-03-02T08:18:41;9.97;;;6.33;;
6505;SDS011;3286;49.858;8.768;2024-03-02T08:21:09;12.07;;;7.07;;
6505;SDS011;3286;49.858;8.768;2024-03-02T08:23:36;12.03;;;6.83;;
6505;SDS011;3286;49.858;8.768;2024-03-02T08:26:03;11.43;;;6.83;;
6505;SDS011;3286;49.858;8.768;2024-03-02T08:28:30;10.47;;;6.80;;
6505;SDS011;3286;49.858;8.768;2024-03-02T08:30:56;13.77;;;6.77;;
6505;SDS011;3286;49.858;8.768;2024-03-02T08:33:23;13.67;;;6.70;;
6505;SDS011;3286;49.858;8.768;2024-03-02T08:35:51;9.80;;;6.53;;
6505;SDS011;3286;49.858;8.768;2024-03-02T08:38:18;11.57;;;7.13;;
6505;SDS011;3286;49.858;8.768;2024-03-02T08:40:45;10.83;;;6.33;;
6505;SDS011;3286;49.858;8.768;2024-03-02T08:43:12;10.20;;;6.00;;
6505;SDS011;3286;49.858;8.768;2024-03-02T08:45:38;7.77;;;6.10;;
6505;SDS011;3286;49.858;8.768;2024-03-02T08:48:06;9.97;;;6.37;;
6505;SDS011;3286;49.858;8.768;2024-03-02T08:50:34;10.57;;;6.23;;
6505;SDS011;3286;49.858;8.768;2024-03-02T08:53:03;8.83;;;5.93;;
6505;SDS011;3286;49.858;8.768;2024-03-02T08:55:30;10.63;;;6.07;;
6505;SDS011;3286;49.858;8.768;2024-03-02T08:57:57;9.77;;;6.13;;
6505;SDS011;3286;49.858;8.768;2024-03-02T09:00:24;9.47;;;5.70;;
6505;SDS011;3286;49.858;8.768;2024-03-02T09:02:51;9.73;;;5.50;;
6505;SDS011;3286;49.858;8.768;2024-03-02T09:05:17;8.90;;;5.43;;
6505;SDS011;3286;49.858;8.768;2024-03-02T09:07:44;6.27;;;5.07;;
6505;SDS011;3286;49.858;8.768;2024-03-02T09:10:12;8.03;;;5.33;;
6505;SDS011;3286;49.858;8.768;2024-03-02T09:12:39;9.10;;;5.17;;
6505;SDS011;3286;49.858;8.768;2024-03-02T09:15:07;8.70;;;5.37;;
6505;SDS011;3286;49.858;8.768;2024-03-02T09:17:34;8.33;;;5.53;;
6505;SDS011;3286;49.858;8.768;2024-03-02T09:20:01;8.57;;;5.27;;
6505;SDS011;3286;49.858;8.768;2024-03-02T09:22:29;7.20;;;5.03;;
6505;SDS011;3286;49.858;8.768;2024-03-02T09:24:55;7.10;;;5.67;;
6505;SDS011;3286;49.858;8.768;2024-03-02T09:27:23;11.23;;;5.80;;
6505;SDS011;3286;49.858;8.768;2024-03-02T09:29:50;8.03;;;5.83;;
6505;SDS011;3286;49.858;8.768;2024-03-02T09:32:17;8.07;;;5.43;;
6505;SDS011;3286;49.858;8.768;2024-03-02T09:34:43;8.43;;;5.60;;
6505;SDS011;3286;49.858;8.768;2024-03-02T09:37:10;10.57;;;5.60;;
6505;SDS011;3286;49.858;8.768;2024-03-02T09:39:37;9.00;;;5.30;;
6505;SDS011;3286;49.858;8.768;2024-03-02T09:42:03;8.27;;;5.67;;
6505;SDS011;3286;49.858;8.768;2024-03-02T09:44:32;21.07;;;9.40;;
6505;SDS011;3286;49.858;8.768;2024-03-02T09:46:59;8.10;;;5.20;;
6505;SDS011;3286;49.858;8.768;2024-03-02T09:49:26;8.27;;;5.57;;
6505;SDS011;3286;49.858;8.768;2024-03-02T09:51:53;7.30;;;5.40;;
6505;SDS011;3286;49.858;8.768;2024-03-02T09:54:20;15.60;;;5.70;;
6505;SDS011;3286;49.858;8.768;2024-03-02T09:56:46;8.57;;;5.27;;
6505;SDS011;3286;49.858;8.768;2024-03-02T09:59:13;8.03;;;5.50;;
6505;SDS011;3286;49.858;8.768;2024-03-02T10:01:56;6.30;;;4.53;;
6505;SDS011;3286;49.858;8.768;2024-03-02T10:04:25;8.30;;;4.70;;
6505;SDS011;3286;49.858;8.768;2024-03-02T10:06:55;5.60;;;4.57;;
6505;SDS011;3286;49.858;8.768;2024-03-02T10:09:36;7.03;;;4.87;;
6505;SDS011;3286;49.858;8.768;2024-03-02T10:12:03;8.37;;;4.90;;
6505;SDS011;3286;49.858;8.768;2024-03-02T10:14:31;5.63;;;4.20;;
6505;SDS011;3286;49.858;8.768;2024-03-02T10:17:02;7.43;;;4.70;;
6505;SDS011;3286;49.858;8.768;2024-03-02T10:19:30;7.20;;;4.47;;
6505;SDS011;3286;49.858;8.768;2024-03-02T10:21:58;7.00;;;4.47;;
6505;SDS011;3286;49.858;8.768;2024-03-02T10:24:25;5.40;;;3.60;;
6505;SDS011;3286;49.858;8.768;2024-03-02T10:26:52;4.13;;;3.37;;
6505;SDS011;3286;49.858;8.768;2024-03-02T10:29:21;6.30;;;4.43;;
6505;SDS011;3286;49.858;8.768;2024-03-02T10:31:48;6.97;;;4.50;;
6505;SDS011;3286;49.858;8.768;2024-03-02T10:34:16;7.77;;;5.40;;
6505;SDS011;3286;49.858;8.768;2024-03-02T10:36:43;7.10;;;5.27;;
6505;SDS011;3286;49.858;8.768;2024-03-02T10:39:11;6.07;;;5.00;;
6505;SDS011;3286;49.858;8.768;2024-03-02T10:41:39;8.07;;;4.95;;
6505;SDS011;3286;49.858;8.768;2024-03-02T10:44:07;6.63;;;4.18;;
6505;SDS011;3286;49.858;8.768;2024-03-02T10:46:35;5.75;;;4.35;;
6505;SDS011;3286;49.858;8.768;2024-03-02T10:49:03;7.80;;;4.57;;
6505;SDS011;3286;49.858;8.768;2024-03-02T10:51:33;9.55;;;3.90;;
6505;SDS011;3286;49.858;8.768;2024-03-02T10:54:01;8.60;;;4.25;;
6505;SDS011;3286;49.858;8.768;2024-03-02T10:56:30;6.53;;;4.63;;
6505;SDS011;3286;49.858;8.768;2024-03-02T10:59:01;7.15;;;4.68;;
6505;SDS011;3286;49.858;8.768;2024-03-02T11:01:29;6.65;;;4.50;;
6505;SDS011;3286;49.858;8.768;2024-03-02T11:03:59;6.95;;;5.10;;
6505;SDS011;3286;49.858;8.768;2024-03-02T11:06:29;7.75;;;5.90;;
6505;SDS011;3286;49.858;8.768;2024-03-02T11:09:00;6.90;;;5.43;;
6505;SDS011;3286;49.858;8.768;2024-03-02T11:11:32;8.55;;;5.80;;
6505;SDS011;3286;49.858;8.768;2024-03-02T11:14:02;11.63;;;5.70;;
6505;SDS011;3286;49.858;8.768;2024-03-02T11:16:34;9.45;;;5.75;;
6505;SDS011;3286;49.858;8.768;2024-03-02T11:19:04;7.43;;;5.25;;
6505;SDS011;3286;49.858;8.768;2024-03-02T11:21:32;8.80;;;5.50;;
6505;SDS011;3286;49.858;8.768;2024-03-02T11:24:02;6.75;;;4.93;;
6505;SDS011;3286;49.858;8.768;2024-03-02T11:26:58;9.15;;;5.40;;
6505;SDS011;3286;49.858;8.768;2024-03-02T11:32:13;6.68;;;5.13;;
6505;SDS011;3286;49.858;8.768;2024-03-02T11:34:41;6.30;;;4.65;;
6505;SDS011;3286;49.858;8.768;2024-03-02T11:37:12;6.75;;;4.45;;
6505;SDS011;3286;49.858;8.768;2024-03-02T11:39:41;6.85;;;4.57;;
6505;SDS011;3286;49.858;8.768;2024-03-02T11:42:10;5.65;;;4.72;;
6505;SDS011;3286;49.858;8.768;2024-03-02T11:44:39;7.22;;;4.90;;
6505;SDS011;3286;49.858;8.768;2024-03-02T11:47:07;6.47;;;4.13;;
6505;SDS011;3286;49.858;8.768;2024-03-02T11:49:37;30.25;;;8.50;;
6505;SDS011;3286;49.858;8.768;2024-03-02T11:52:05;5.88;;;3.78;;
6505;SDS011;3286;49.858;8.768;2024-03-02T11:54:33;5.18;;;3.70;;
6505;SDS011;3286;49.858;8.768;2024-03-02T11:57:02;5.10;;;3.60;;
6505;SDS011;3286;49.858;8.768;2024-03-02T11:59:29;5.47;;;3.17;;
6505;SDS011;3286;49.858;8.768;2024-03-02T12:01:56;5.57;;;3.63;;
6505;SDS011;3286;49.858;8.768;2024-03-02T12:04:24;3.65;;;3.00;;
6505;SDS011;3286;49.858;8.768;2024-03-02T12:06:56;4.40;;;3.30;;
6505;SDS011;3286;49.858;8.768;2024-03-02T12:09:25;6.20;;;3.30;;
6505;SDS011;3286;49.858;8.768;2024-03-02T12:12:01;4.55;;;2.67;;
6505;SDS011;3286;49.858;8.768;2024-03-02T12:14:30;5.53;;;2.60;;
6505;SDS011;3286;49.858;8.768;2024-03-02T12:16:58;7.20;;;2.75;;
6505;SDS011;3286;49.858;8.768;2024-03-02T12:19:25;4.05;;;2.83;;
6505;SDS011;3286;49.858;8.768;2024-03-02T12:21:52;4.28;;;2.80;;
6505;SDS011;3286;49.858;8.768;2024-03-02T12:24:18;3.78;;;2.60;;
6505;SDS011;3286;49.858;8.768;2024-03-02T12:26:45;3.55;;;2.55;;
6505;SDS011;3286;49.858;8.768;2024-03-02T12:29:14;2.70;;;2.17;;
6505;SDS011;3286;49.858;8.768;2024-03-02T12:31:41;4.93;;;1.98;;
6505;SDS011;3286;49.858;8.768;2024-03-02T12:34:11;6.18;;;2.75;;
6505;SDS011;3286;49.858;8.768;2024-03-02T12:36:39;2.70;;;2.25;;
6505;SDS011;3286;49.858;8.768;2024-03-02T12:39:07;7.47;;;2.35;;
6505;SDS011;3286;49.858;8.768;2024-03-02T12:41:35;3.03;;;2.10;;
6505;SDS011;3286;49.858;8.768;2024-03-02T12:44:03;2.90;;;2.20;;
6505;SDS011;3286;49.858;8.768;2024-03-02T12:46:32;5.35;;;2.45;;
6505;SDS011;3286;49.858;8.768;2024-03-02T12:49:04;2.42;;;1.95;;
6505;SDS011;3286;49.858;8.768;2024-03-02T12:51:34;3.20;;;2.30;;
6505;SDS011;3286;49.858;8.768;2024-03-02T12:54:01;2.33;;;2.13;;
6505;SDS011;3286;49.858;8.768;2024-03-02T12:56:30;2.38;;;2.05;;
6505;SDS011;3286;49.858;8.768;2024-03-02T12:58:58;2.15;;;1.90;;
6505;SDS011;3286;49.858;8.768;2024-03-02T13:01:25;3.08;;;2.00;;
6505;SDS011;3286;49.858;8.768;2024-03-02T13:03:54;4.47;;;1.83;;
6505;SDS011;3286;49.858;8.768;2024-03-02T13:06:22;2.42;;;2.00;;
6505;SDS011;3286;49.858;8.768;2024-03-02T13:08:49;2.70;;;2.00;;
6505;SDS011;3286;49.858;8.768;2024-03-02T13:11:16;3.75;;;2.58;;
6505;SDS011;3286;49.858;8.768;2024-03-02T13:13:43;4.38;;;2.78;;
6505;SDS011;3286;49.858;8.768;2024-03-02T13:16:09;3.53;;;2.90;;
6505;SDS011;3286;49.858;8.768;2024-03-02T13:18:38;3.75;;;2.42;;
6505;SDS011;3286;49.858;8.768;2024-03-02T13:21:06;4.60;;;2.70;;
6505;SDS011;3286;49.858;8.768;2024-03-02T13:23:32;3.60;;;2.50;;
6505;SDS011;3286;49.858;8.768;2024-03-02T13:25:59;3.05;;;2.42;;
6505;SDS011;3286;49.858;8.768;2024-03-02T13:28:26;6.32;;;2.30;;
6505;SDS011;3286;49.858;8.768;2024-03-02T13:30:53;4.10;;;2.22;;
6505;SDS011;3286;49.858;8.768;2024-03-02T13:33:20;3.88;;;2.33;;
6505;SDS011;3286;49.858;8.768;2024-03-02T13:35:47;2.55;;;2.08;;
6505;SDS011;3286;49.858;8.768;2024-03-02T13:38:16;3.15;;;2.40;;
6505;SDS011;3286;49.858;8.768;2024-03-02T13:40:43;3.80;;;2.03;;
6505;SDS011;3286;49.858;8.768;2024-03-02T13:43:10;2.47;;;2.28;;
6505;SDS011;3286;49.858;8.768;2024-03-02T13:45:37;3.10;;;2.30;;
6505;SDS011;3286;49.858;8.768;2024-03-02T13:48:04;2.40;;;1.55;;
6505;SDS011;3286;49.858;8.768;2024-03-02T13:50:31;4.68;;;2.65;;
6505;SDS011;3286;49.858;8.768;2024-03-02T13:52:58;2.85;;;2.30;;
6505;SDS011;3286;49.858;8.768;2024-03-02T13:55:26;2.30;;;2.10;;
6505;SDS011;3286;49.858;8.768;2024-03-02T13:57:53;2.40;;;2.00;;
6505;SDS011;3286;49.858;8.768;2024-03-02T14:00:19;2.70;;;2.03;;
6505;SDS011;3286;49.858;8.768;2024-03-02T14:02:46;2.28;;;1.83;;
6505;SDS011;3286;49.858;8.768;2024-03-02T14:05:14;1.90;;;1.70;;
6505;SDS011;3286;49.858;8.768;2024-03-02T14:07:41;3.03;;;1.88;;
6505;SDS011;3286;49.858;8.768;2024-03-02T14:10:09;1.70;;;1.60;;
6505;SDS011;3286;49.858;8.768;2024-03-02T14:12:37;2.25;;;1.65;;
6505;SDS011;3286;49.858;8.768;2024-03-02T14:15:04;1.70;;;1.60;;
6505;SDS011;3286;49.858;8.768;2024-03-02T14:17:32;2.15;;;1.65;;
6505;SDS011;3286;49.858;8.768;2024-03-02T14:19:58;1.70;;;1.40;;
6505;SDS011;3286;49.858;8.768;2024-03-02T14:22:25;1.60;;;1.50;;
6505;SDS011;3286;49.858;8.768;2024-03-02T14:24:52;1.58;;;1.40;;
6505;SDS011;3286;49.858;8.768;2024-03-02T14:27:19;1.52;;;1.30;;
6505;SDS011;3286;49.858;8.768;2024-03-02T14:29:47;1.50;;;1.40;;
6505;SDS011;3286;49.858;8.768;2024-03-02T14:32:14;1.65;;;1.35;;
6505;SDS011;3286;49.858;8.768;2024-03-02T14:34:40;1.40;;;1.17;;
6505;SDS011;3286;49.858;8.768;2024-03-02T14:37:07;2.33;;;1.42;;
6505;SDS011;3286;49.858;8.768;2024-03-02T14:39:34;1.10;;;1.00;;
6505;SDS011;3286;49.858;8.768;2024-03-02T14:42:01;1.92;;;1.30;;
6505;SDS011;3286;49.858;8.768;2024-03-02T14:44:28;1.50;;;1.35;;
6505;SDS011;3286;49.858;8.768;2024-03-02T14:46:56;1.35;;;0.95;;
6505;SDS011;3286;49.858;8.768;2024-03-02T14:49:23;1.77;;;1.05;;
6505;SDS011;3286;49.858;8.768;2024-03-02T14:51:50;1.13;;;1.02;;
6505;SDS011;3286;49.858;8.768;2024-03-02T14:54:17;0.82;;;0.80;;
6505;SDS011;3286;49.858;8.768;2024-03-02T14:56:43;3.22;;;0.82;;
6505;SDS011;3286;49.858;8.768;2024-03-02T14:59:10;1.13;;;0.90;;
6505;SDS011;3286;49.858;8.768;2024-03-02T15:01:36;1.02;;;0.85;;
6505;SDS011;3286;49.858;8.768;2024-03-02T15:04:05;0.93;;;0.80;;
6505;SDS011;3286;49.858;8.768;2024-03-02T15:06:32;0.50;;;0.50;;
6505;SDS011;3286;49.858;8.768;2024-03-02T15:08:58;0.70;;;0.60;;
6505;SDS011;3286;49.858;8.768;2024-03-02T15:11:26;0.60;;;0.60;;
6505;SDS011;3286;49.858;8.768;2024-03-02T15:13:53;0.88;;;0.88;;
6505;SDS011;3286;49.858;8.768;2024-03-02T15:16:20;0.68;;;0.68;;
6505;SDS011;3286;49.858;8.768;2024-03-02T15:18:46;0.95;;;0.52;;